createdAt,value
2022-10-14T00:01:24.800Z,3.10
2022-10-14T00:03:53.907Z,2.83
2022-10-14T00:06:25.194Z,2.50
2022-10-14T00:08:53.912Z,2.40
2022-10-14T00:11:26.576Z,2.30
2022-10-14T00:13:57.151Z,2.93
2022-10-14T00:16:29.177Z,2.43
2022-10-14T00:18:57.941Z,3.40
2022-10-14T00:21:26.964Z,2.37
2022-10-14T00:23:55.759Z,2.40
2022-10-14T00:26:28.596Z,2.43
2022-10-14T00:28:58.581Z,2.43
2022-10-14T00:31:27.004Z,2.43
2022-10-14T00:33:55.400Z,2.20
2022-10-14T00:36:25.964Z,2.27
2022-10-14T00:38:55.528Z,2.93
2022-10-14T00:41:28.044Z,2.40
2022-10-14T00:44:00.925Z,2.30
2022-10-14T00:46:31.584Z,2.00
2022-10-14T00:49:03.143Z,2.30
2022-10-14T00:51:31.584Z,2.70
2022-10-14T00:53:59.641Z,2.33
2022-10-14T00:56:31.314Z,2.27
2022-10-14T00:59:01.044Z,2.00
2022-10-14T01:01:29.060Z,2.70
2022-10-14T01:03:57.023Z,2.70
2022-10-14T01:06:42.661Z,2.70
2022-10-14T01:09:21.575Z,2.50
2022-10-14T01:12:26.874Z,2.20
2022-10-14T01:14:59.346Z,2.73
2022-10-14T01:17:39.545Z,1.93
2022-10-14T01:20:42.285Z,3.50
2022-10-14T01:23:57.547Z,2.37
2022-10-14T01:26:44.530Z,2.27
2022-10-14T01:29:59.501Z,2.50
2022-10-14T01:32:32.081Z,2.30
2022-10-14T01:35:12.682Z,2.43
2022-10-14T01:37:53.645Z,2.27
2022-10-14T01:40:30.186Z,3.20
2022-10-14T01:43:01.109Z,2.57
2022-10-14T01:45:35.119Z,1.60
2022-10-14T01:48:06.646Z,2.17
2022-10-14T01:50:37.811Z,2.40
2022-10-14T01:53:10.528Z,1.83
2022-10-14T01:55:44.912Z,2.00
2022-10-14T01:58:17.620Z,2.60
2022-10-14T02:00:47.770Z,2.20
2022-10-14T02:03:17.208Z,2.33
2022-10-14T02:05:52.343Z,2.77
2022-10-14T02:08:34.875Z,2.30
2022-10-14T02:11:10.079Z,2.10
2022-10-14T02:13:57.971Z,2.50
2022-10-14T02:16:37.611Z,2.20
2022-10-14T02:19:17.756Z,1.90
2022-10-14T02:21:49.714Z,2.13
2022-10-14T02:24:23.677Z,2.43
2022-10-14T02:26:56.201Z,1.87
2022-10-14T02:29:26.806Z,1.90
2022-10-14T02:31:56.229Z,2.60
2022-10-14T02:34:26.152Z,2.73
2022-10-14T02:36:56.007Z,2.23
2022-10-14T02:39:30.262Z,2.07
2022-10-14T02:41:58.652Z,2.47
2022-10-14T02:44:26.704Z,2.30
2022-10-14T02:46:56.154Z,2.27
2022-10-14T02:49:25.483Z,3.10
2022-10-14T02:51:53.457Z,1.60
2022-10-14T02:54:21.484Z,2.07
2022-10-14T02:56:49.460Z,2.23
2022-10-14T02:59:17.410Z,1.60
2022-10-14T03:01:45.708Z,2.87
2022-10-14T03:04:13.696Z,1.77
2022-10-14T03:06:42.965Z,1.60
2022-10-14T03:09:10.901Z,2.30
2022-10-14T03:11:39.199Z,1.80
2022-10-14T03:14:07.334Z,2.70
2022-10-14T03:16:35.286Z,2.13
2022-10-14T03:19:03.232Z,1.90
2022-10-14T03:21:31.589Z,2.10
2022-10-14T03:24:01.313Z,2.70
2022-10-14T03:26:29.510Z,2.20
2022-10-14T03:28:57.623Z,2.23
2022-10-14T03:31:25.661Z,2.00
2022-10-14T03:33:53.601Z,2.20
2022-10-14T03:36:21.569Z,2.63
2022-10-14T03:38:49.557Z,2.33
2022-10-14T03:41:18.863Z,2.67
2022-10-14T03:43:46.933Z,2.90
2022-10-14T03:46:15.037Z,2.33
2022-10-14T03:48:43.011Z,2.27
2022-10-14T03:51:11.051Z,1.60
2022-10-14T03:53:38.976Z,1.70
2022-10-14T03:56:07.901Z,2.47
2022-10-14T03:58:37.245Z,2.23
2022-10-14T04:01:05.237Z,2.00
2022-10-14T04:03:33.206Z,2.50
2022-10-14T04:06:01.177Z,2.17
2022-10-14T04:08:29.123Z,1.80
2022-10-14T04:10:57.638Z,2.10
2022-10-14T04:13:25.872Z,1.80
2022-10-14T04:15:55.156Z,2.17
2022-10-14T04:18:23.103Z,2.17
2022-10-14T04:20:51.034Z,2.60
2022-10-14T04:23:18.936Z,1.80
2022-10-14T04:25:46.900Z,1.93
2022-10-14T04:28:14.945Z,1.70
2022-10-14T04:30:43.464Z,2.33
2022-10-14T04:33:13.084Z,2.03
2022-10-14T04:35:41.097Z,1.90
2022-10-14T04:38:09.256Z,1.77
2022-10-14T04:40:37.307Z,2.07
2022-10-14T04:43:05.254Z,1.50
2022-10-14T04:45:33.524Z,1.83
2022-10-14T04:48:01.456Z,1.90
2022-10-14T04:50:30.822Z,2.40
2022-10-14T04:52:58.727Z,1.37
2022-10-14T04:55:26.711Z,1.70
2022-10-14T04:57:54.660Z,1.77
2022-10-14T05:00:22.849Z,1.57
2022-10-14T05:02:50.833Z,2.30
2022-10-14T05:05:18.939Z,2.20
2022-10-14T05:07:48.221Z,1.90
2022-10-14T05:10:16.128Z,2.27
2022-10-14T05:12:44.120Z,2.10
2022-10-14T05:15:12.638Z,1.73
2022-10-14T05:17:44.352Z,1.90
2022-10-14T05:20:13.013Z,2.20
2022-10-14T05:22:41.180Z,1.80
2022-10-14T05:25:10.831Z,1.97
2022-10-14T05:27:38.812Z,1.70
2022-10-14T05:30:08.291Z,2.10
2022-10-14T05:32:36.224Z,2.37
2022-10-14T05:35:04.812Z,2.00
2022-10-14T05:37:33.023Z,1.80
2022-10-14T05:40:00.952Z,1.80
2022-10-14T05:42:30.250Z,1.97
2022-10-14T05:44:58.234Z,1.80
2022-10-14T05:47:26.289Z,1.77
2022-10-14T05:49:54.221Z,2.30
2022-10-14T05:52:22.445Z,1.90
2022-10-14T05:54:50.621Z,2.03
2022-10-14T05:57:18.624Z,1.73
2022-10-14T05:59:47.932Z,1.60
2022-10-14T06:02:15.874Z,2.17
2022-10-14T06:04:43.820Z,1.70
2022-10-14T06:07:11.893Z,1.90
2022-10-14T06:09:40.142Z,1.80
2022-10-14T06:12:09.496Z,2.47
2022-10-14T06:14:38.468Z,1.60
2022-10-14T06:17:08.067Z,2.20
2022-10-14T06:19:36.019Z,1.80
2022-10-14T06:22:03.948Z,1.80
2022-10-14T06:24:31.909Z,2.10
2022-10-14T06:27:00.038Z,1.97
2022-10-14T06:29:31.617Z,1.70
2022-10-14T06:31:59.667Z,1.90
2022-10-14T06:34:28.946Z,1.70
2022-10-14T06:37:01.331Z,1.87
2022-10-14T06:39:30.238Z,1.63
2022-10-14T06:41:58.501Z,1.43
2022-10-14T06:44:26.455Z,1.43
2022-10-14T06:46:54.354Z,1.50
2022-10-14T06:49:23.169Z,2.53
2022-10-14T06:51:52.418Z,2.40
2022-10-14T06:54:20.580Z,2.20
2022-10-14T06:56:48.564Z,2.77
2022-10-14T06:59:16.513Z,2.20
2022-10-14T07:01:44.549Z,2.30
2022-10-14T07:04:12.662Z,2.10
2022-10-14T07:06:40.646Z,1.77
2022-10-14T07:09:09.913Z,2.20
2022-10-14T07:11:37.872Z,1.60
2022-10-14T07:14:05.896Z,1.80
2022-10-14T07:16:33.917Z,1.80
2022-10-14T07:19:01.869Z,1.93
2022-10-14T07:21:30.452Z,1.50
2022-10-14T07:23:58.390Z,1.40
2022-10-14T07:26:27.705Z,1.73
2022-10-14T07:28:55.729Z,1.60
2022-10-14T07:31:23.783Z,1.90
2022-10-14T07:33:51.692Z,2.27
2022-10-14T07:36:22.697Z,1.60
2022-10-14T07:38:51.336Z,1.67
2022-10-14T07:41:22.056Z,2.60
2022-10-14T07:43:54.028Z,1.90
2022-10-14T07:46:29.723Z,2.00
2022-10-14T07:48:58.166Z,1.83
2022-10-14T07:51:27.189Z,2.37
2022-10-14T07:53:56.763Z,1.70
2022-10-14T07:56:25.030Z,2.20
2022-10-14T07:58:55.400Z,1.63
2022-10-14T08:01:24.444Z,2.10
2022-10-14T08:03:53.237Z,1.50
2022-10-14T08:06:21.629Z,2.53
2022-10-14T08:08:50.481Z,2.07
2022-10-14T08:11:21.244Z,1.40
2022-10-14T08:13:50.341Z,1.83
2022-10-14T08:16:23.026Z,1.83
2022-10-14T08:18:52.157Z,1.90
2022-10-14T08:21:21.900Z,2.33
2022-10-14T08:23:50.134Z,1.93
2022-10-14T08:26:22.740Z,2.50
2022-10-14T08:28:52.241Z,2.07
2022-10-14T08:31:22.382Z,2.17
2022-10-14T08:33:50.767Z,1.97
2022-10-14T08:36:20.389Z,2.70
2022-10-14T08:38:49.091Z,2.53
2022-10-14T08:41:57.326Z,2.92
2022-10-14T08:44:28.290Z,2.87
2022-10-14T08:47:00.700Z,2.80
2022-10-14T08:49:33.889Z,2.80
2022-10-14T08:52:05.876Z,2.60
2022-10-14T08:54:40.501Z,2.40
2022-10-14T08:57:17.971Z,3.20
2022-10-14T08:59:46.317Z,3.07
2022-10-14T09:02:28.655Z,2.47
2022-10-14T09:04:57.893Z,2.60
2022-10-14T09:07:26.638Z,2.27
2022-10-14T09:10:01.461Z,2.60
2022-10-14T09:12:34.997Z,2.60
2022-10-14T09:15:14.161Z,2.50
2022-10-14T09:17:52.863Z,2.77
2022-10-14T09:20:23.590Z,2.53
2022-10-14T09:23:09.648Z,3.27
2022-10-14T09:25:45.680Z,2.63
2022-10-14T09:28:13.663Z,2.57
2022-10-14T09:30:41.687Z,2.00
2022-10-14T09:33:20.551Z,2.53
2022-10-14T09:35:49.648Z,2.87
2022-10-14T09:38:18.551Z,3.07
2022-10-14T09:40:49.336Z,2.50
2022-10-14T09:43:20.860Z,3.30
2022-10-14T09:45:53.211Z,3.07
2022-10-14T09:48:33.124Z,2.67
2022-10-14T09:51:04.692Z,2.40
2022-10-14T09:53:37.504Z,2.57
2022-10-14T09:56:08.340Z,2.90
2022-10-14T09:58:44.029Z,2.53
2022-10-14T10:01:17.584Z,3.00
2022-10-14T10:03:47.972Z,2.80
2022-10-14T10:06:19.205Z,3.20
2022-10-14T10:08:59.952Z,1.97
2022-10-14T10:11:30.360Z,3.30
2022-10-14T10:13:58.473Z,3.70
2022-10-14T10:16:31.192Z,2.83
2022-10-14T10:19:26.952Z,2.83
2022-10-14T10:21:55.313Z,4.07
2022-10-14T10:24:27.315Z,3.40
2022-10-14T10:26:58.267Z,3.43
2022-10-14T10:29:32.233Z,3.00
2022-10-14T10:32:12.064Z,2.90
2022-10-14T10:35:16.413Z,3.70
2022-10-14T10:37:57.569Z,3.30
2022-10-14T10:40:48.323Z,3.17
2022-10-14T10:43:43.467Z,3.60
2022-10-14T10:46:35.743Z,4.23
2022-10-14T10:49:16.469Z,3.40
2022-10-14T10:51:55.927Z,5.10
2022-10-14T10:54:40.036Z,4.97
2022-10-14T10:57:16.407Z,4.37
2022-10-14T10:59:57.688Z,4.93
2022-10-14T11:02:54.990Z,5.57
2022-10-14T11:05:56.362Z,5.40
2022-10-14T11:09:11.112Z,5.20
2022-10-14T11:12:07.707Z,5.33
2022-10-14T11:15:02.913Z,4.97
2022-10-14T11:20:27.075Z,5.00
2022-10-14T11:23:20.023Z,4.87
2022-10-14T11:25:58.351Z,5.57
2022-10-14T11:28:36.315Z,5.80
2022-10-14T11:31:14.029Z,5.33
2022-10-14T11:34:04.356Z,4.97
2022-10-14T11:36:41.409Z,4.40
2022-10-14T11:39:29.605Z,4.70
2022-10-14T11:42:14.812Z,4.83
2022-10-14T11:44:44.812Z,5.33
2022-10-14T11:47:21.680Z,4.60
2022-10-14T11:49:57.199Z,5.10
2022-10-14T11:52:29.717Z,4.47
2022-10-14T11:55:07.729Z,5.43
2022-10-14T11:57:45.485Z,5.20
2022-10-14T12:00:36.121Z,6.20
2022-10-14T12:03:12.101Z,5.50
2022-10-14T12:05:47.115Z,4.63
2022-10-14T12:08:26.992Z,4.70
2022-10-14T12:11:02.834Z,4.60
2022-10-14T12:13:37.489Z,5.17
2022-10-14T12:16:08.626Z,6.40
2022-10-14T12:21:20.017Z,6.00
2022-10-14T12:23:52.553Z,5.23
2022-10-14T12:26:48.396Z,5.83
2022-10-14T12:29:22.041Z,5.17
2022-10-14T12:32:07.496Z,5.33
2022-10-14T12:34:38.289Z,5.70
2022-10-14T12:37:49.936Z,4.80
2022-10-14T12:40:31.940Z,5.43
2022-10-14T12:43:21.469Z,5.10
2022-10-14T12:46:14.004Z,5.57
2022-10-14T12:48:52.258Z,5.90
2022-10-14T12:51:24.405Z,4.80
2022-10-14T12:54:01.954Z,5.30
2022-10-14T12:56:34.316Z,5.40
2022-10-14T12:59:05.540Z,4.60
2022-10-14T13:01:36.815Z,5.10
2022-10-14T13:04:10.133Z,5.40
2022-10-14T13:06:42.288Z,5.50
2022-10-14T13:09:41.479Z,5.03
2022-10-14T13:12:43.794Z,5.43
2022-10-14T13:15:53.819Z,5.10
2022-10-14T13:18:51.575Z,5.33
2022-10-14T13:21:52.475Z,5.10
2022-10-14T13:24:28.556Z,5.93
2022-10-14T13:27:10.289Z,5.53
2022-10-14T13:30:00.399Z,5.30
2022-10-14T13:32:36.416Z,4.60
2022-10-14T13:35:20.921Z,5.00
2022-10-14T13:37:59.777Z,4.30
2022-10-14T13:40:31.620Z,4.67
2022-10-14T13:43:01.966Z,5.80
2022-10-14T13:45:38.190Z,4.67
2022-10-14T13:48:14.778Z,5.37
2022-10-14T13:50:45.054Z,5.47
2022-10-14T13:53:19.050Z,4.80
2022-10-14T13:55:54.022Z,4.87
2022-10-14T13:58:25.053Z,5.13
2022-10-14T14:01:04.034Z,4.27
2022-10-14T14:03:36.477Z,5.83
2022-10-14T14:06:13.157Z,5.30
2022-10-14T14:08:49.292Z,4.80
2022-10-14T14:11:20.953Z,5.20
2022-10-14T14:14:01.119Z,5.47
2022-10-14T14:16:34.000Z,4.70
2022-10-14T14:19:08.803Z,4.40
2022-10-14T14:21:39.323Z,4.47
2022-10-14T14:24:19.086Z,4.87
2022-10-14T14:26:47.175Z,5.50
2022-10-14T14:29:18.947Z,4.20
2022-10-14T14:32:06.026Z,4.90
2022-10-14T14:34:37.060Z,4.57
2022-10-14T14:40:00.759Z,5.63
2022-10-14T14:42:35.777Z,4.97
2022-10-14T14:45:08.905Z,4.53
2022-10-14T14:47:36.948Z,4.33
2022-10-14T14:53:00.555Z,4.77
2022-10-14T14:55:42.381Z,4.63
2022-10-14T14:58:25.621Z,3.40
2022-10-14T15:00:55.517Z,4.27
2022-10-14T15:03:26.661Z,4.70
2022-10-14T15:05:59.775Z,4.30
2022-10-14T15:08:32.416Z,4.70
2022-10-14T15:11:01.871Z,4.77
2022-10-14T15:13:44.068Z,4.53
2022-10-14T15:16:12.424Z,4.00
2022-10-14T15:18:43.364Z,4.80
2022-10-14T15:21:19.994Z,4.40
2022-10-14T15:24:03.170Z,4.00
2022-10-14T15:26:34.579Z,4.70
2022-10-14T15:29:16.183Z,3.50
2022-10-14T15:31:47.165Z,4.97
2022-10-14T15:34:22.103Z,3.80
2022-10-14T15:36:52.362Z,4.07
2022-10-14T15:39:23.226Z,4.20
2022-10-14T15:41:51.233Z,4.27
2022-10-14T15:44:19.211Z,4.73
2022-10-14T15:47:05.444Z,4.70
2022-10-14T15:49:37.709Z,4.30
2022-10-14T15:52:06.011Z,4.43
2022-10-14T15:54:35.729Z,4.20
2022-10-14T15:57:05.542Z,4.60
2022-10-14T15:59:33.513Z,4.80
2022-10-14T16:02:01.652Z,4.67
2022-10-14T16:04:29.750Z,5.10
2022-10-14T16:06:58.624Z,4.40
2022-10-14T16:09:28.464Z,4.00
2022-10-14T16:12:00.847Z,5.00
2022-10-14T16:14:28.965Z,4.23
2022-10-14T16:16:57.503Z,4.23
2022-10-14T16:19:26.560Z,4.27
2022-10-14T16:21:54.570Z,4.50
2022-10-14T16:24:25.220Z,4.40
2022-10-14T16:26:54.636Z,3.70
2022-10-14T16:29:23.922Z,4.00
2022-10-14T16:31:52.695Z,3.50
2022-10-14T16:34:23.274Z,3.30
2022-10-14T16:36:52.159Z,4.23
2022-10-14T16:39:20.800Z,3.17
2022-10-14T16:41:49.555Z,3.93
2022-10-14T16:44:27.625Z,4.20
2022-10-14T16:47:17.336Z,3.83
2022-10-14T16:49:49.082Z,3.93
2022-10-14T16:52:17.585Z,4.23
2022-10-14T16:54:46.232Z,6.20
2022-10-14T16:57:14.548Z,6.60
2022-10-14T16:59:42.657Z,7.00
2022-10-14T17:02:15.952Z,6.57
2022-10-14T17:04:46.278Z,5.30
2022-10-14T17:07:17.170Z,6.20
2022-10-14T17:09:45.200Z,3.80
2022-10-14T17:12:13.980Z,4.73
2022-10-14T17:14:42.807Z,5.40
2022-10-14T17:17:12.930Z,4.85
2022-10-14T17:19:41.227Z,4.87
2022-10-14T17:22:09.282Z,4.43
2022-10-14T17:24:37.240Z,5.03
2022-10-14T17:27:05.719Z,5.33
2022-10-14T17:29:33.994Z,5.67
2022-10-14T17:32:01.974Z,5.20
2022-10-14T17:34:31.711Z,4.60
2022-10-14T17:37:00.458Z,5.00
2022-10-14T17:39:29.764Z,4.77
2022-10-14T17:41:58.498Z,5.27
2022-10-14T17:44:28.502Z,5.57
2022-10-14T17:46:56.856Z,5.13
2022-10-14T17:49:24.867Z,5.87
2022-10-14T17:51:54.379Z,6.00
2022-10-14T17:54:22.595Z,4.60
2022-10-14T17:56:51.018Z,4.20
2022-10-14T17:59:19.062Z,4.47
2022-10-14T18:02:02.134Z,5.33
2022-10-14T18:04:32.210Z,5.53
2022-10-14T18:07:01.847Z,4.50
2022-10-14T18:09:29.850Z,5.40
2022-10-14T18:12:13.615Z,5.93
2022-10-14T18:14:42.369Z,5.90
2022-10-14T18:17:12.666Z,5.73
2022-10-14T18:19:51.853Z,4.50
2022-10-14T18:22:21.586Z,5.63
2022-10-14T18:24:49.548Z,6.43
2022-10-14T18:27:17.720Z,5.20
2022-10-14T18:29:45.764Z,4.80
2022-10-14T18:32:13.738Z,5.43
2022-10-14T18:34:41.694Z,5.57
2022-10-14T18:37:09.690Z,4.60
2022-10-14T18:39:39.198Z,5.40
2022-10-14T18:42:07.197Z,5.20
2022-10-14T18:44:35.176Z,5.37
2022-10-14T18:47:03.206Z,5.50
2022-10-14T18:49:34.484Z,5.70
2022-10-14T18:52:04.662Z,5.10
2022-10-14T18:54:32.676Z,4.97
2022-10-14T18:57:02.559Z,5.17
2022-10-14T18:59:30.820Z,4.30
2022-10-14T19:01:58.828Z,4.83
2022-10-14T19:04:27.939Z,5.50
2022-10-14T19:06:55.901Z,5.47
2022-10-14T19:09:29.411Z,4.90
2022-10-14T19:11:58.891Z,5.00
2022-10-14T19:14:31.641Z,6.23
2022-10-14T19:16:59.676Z,6.10
2022-10-14T19:19:27.733Z,6.17
2022-10-14T19:21:59.420Z,5.70
2022-10-14T19:24:27.755Z,5.57
2022-10-14T19:26:56.870Z,6.53
2022-10-14T19:29:25.085Z,6.70
2022-10-14T19:31:54.527Z,5.20
2022-10-14T19:34:26.718Z,6.27
2022-10-14T19:36:55.155Z,6.30
2022-10-14T19:39:23.117Z,5.40
2022-10-14T19:41:51.105Z,5.63
2022-10-14T19:44:19.167Z,6.33
2022-10-14T19:46:47.209Z,4.87
2022-10-14T19:49:17.136Z,5.60
2022-10-14T19:51:45.165Z,4.40
2022-10-14T19:54:14.337Z,5.57
2022-10-14T19:56:42.375Z,5.83
2022-10-14T19:59:13.327Z,6.00
2022-10-14T20:01:42.388Z,5.63
2022-10-14T20:04:10.668Z,5.13
2022-10-14T20:06:40.483Z,6.40
2022-10-14T20:09:09.699Z,5.27
2022-10-14T20:11:37.670Z,5.17
2022-10-14T20:14:05.663Z,4.77
2022-10-14T20:16:33.975Z,5.20
2022-10-14T20:19:02.020Z,5.13
2022-10-14T20:21:30.915Z,4.73
2022-10-14T20:24:00.417Z,5.13
2022-10-14T20:26:28.442Z,4.77
2022-10-14T20:28:56.727Z,4.27
2022-10-14T20:31:26.160Z,6.20
2022-10-14T20:33:56.581Z,5.23
2022-10-14T20:36:24.718Z,5.50
2022-10-14T20:38:53.168Z,5.30
2022-10-14T20:41:25.223Z,5.30
2022-10-14T20:43:55.070Z,5.03
2022-10-14T20:46:24.504Z,4.57
2022-10-14T20:48:55.212Z,4.47
2022-10-14T20:51:23.599Z,4.37
2022-10-14T20:54:00.378Z,5.03
2022-10-14T20:56:33.477Z,4.60
2022-10-14T20:59:06.171Z,4.77
2022-10-14T21:01:35.345Z,4.10
2022-10-14T21:04:05.498Z,4.37
2022-10-14T21:06:34.318Z,4.10
2022-10-14T21:09:02.399Z,4.30
2022-10-14T21:11:31.937Z,4.20
2022-10-14T21:14:01.508Z,4.97
2022-10-14T21:16:32.468Z,4.57
2022-10-14T21:19:03.586Z,4.53
2022-10-14T21:21:35.914Z,4.40
2022-10-14T21:24:04.335Z,4.70
2022-10-14T21:26:33.732Z,5.13
2022-10-14T21:29:02.812Z,4.87
2022-10-14T21:31:31.235Z,3.87
2022-10-14T21:34:05.683Z,4.67
2022-10-14T21:36:35.275Z,5.10
2022-10-14T21:39:07.152Z,4.80
2022-10-14T21:41:37.437Z,4.10
2022-10-14T21:44:06.610Z,4.40
2022-10-14T21:46:35.516Z,4.60
2022-10-14T21:49:03.848Z,4.90
2022-10-14T21:51:32.887Z,4.30
2022-10-14T21:54:00.926Z,4.10
2022-10-14T21:56:30.090Z,4.77
2022-10-14T21:58:59.779Z,4.47
2022-10-14T22:01:30.112Z,4.60
2022-10-14T22:04:00.430Z,4.30
2022-10-14T22:06:29.481Z,4.33
2022-10-14T22:08:59.882Z,4.33
2022-10-14T22:11:31.207Z,3.87
2022-10-14T22:14:03.343Z,4.00
2022-10-14T22:16:31.565Z,4.50
2022-10-14T22:19:02.050Z,4.27
2022-10-14T22:21:32.463Z,4.17
2022-10-14T22:24:01.403Z,4.47
2022-10-14T22:26:31.216Z,3.87
2022-10-14T22:29:02.951Z,3.97
2022-10-14T22:31:33.001Z,4.67
2022-10-14T22:34:01.962Z,3.80
2022-10-14T22:36:31.260Z,4.53
2022-10-14T22:39:01.425Z,4.30
2022-10-14T22:41:35.184Z,4.53
2022-10-14T22:44:06.520Z,4.17
2022-10-14T22:46:36.445Z,3.53
2022-10-14T22:49:05.181Z,3.20
2022-10-14T22:51:35.381Z,4.77
2022-10-14T22:54:04.112Z,4.23
2022-10-14T22:56:33.300Z,3.80
2022-10-14T22:59:05.779Z,3.60
2022-10-14T23:01:34.625Z,3.80
2022-10-14T23:04:03.297Z,3.80
2022-10-14T23:06:31.822Z,3.70
2022-10-14T23:09:00.849Z,3.80
2022-10-14T23:11:31.387Z,3.70
2022-10-14T23:14:02.806Z,3.03
2022-10-14T23:16:35.913Z,3.53
2022-10-14T23:19:04.650Z,3.73
2022-10-14T23:21:35.104Z,3.97
2022-10-14T23:24:06.271Z,3.90
2022-10-14T23:26:38.108Z,3.40
2022-10-14T23:29:08.996Z,2.83
2022-10-14T23:31:39.893Z,3.63
2022-10-14T23:34:12.130Z,3.80
2022-10-14T23:36:41.091Z,3.57
2022-10-14T23:39:09.732Z,3.60
2022-10-14T23:41:37.987Z,3.80
2022-10-14T23:44:06.021Z,3.43
2022-10-14T23:46:33.983Z,3.90
2022-10-14T23:49:25.071Z,2.80
2022-10-14T23:51:51.294Z,3.80
2022-10-14T23:54:19.476Z,3.13
2022-10-14T23:56:47.504Z,3.33
2022-10-14T23:59:15.769Z,3.33
